Sam, Kazakhstan
Current Conditions -  °F | °C
As of 8:30 PM on Monday 22 Dec 2014 (Local Time) from UATG Reporting Station
Haze Haze  
Wind Chill: 27°   Ceiling: 2300
Heat Index: 36°   Visibility: 3mi
Dew Point: 36°   Wind: 13mph
Humidity: 100%   Direction: 150°SSE
Pressure: 29.85"   Gusts: NA
Location:  45.4°N, 56.12°E
Report Text: UATG 221630Z 15006MPS 5000 BR BKN023 02/02 Q1011 R14/19//68NOSIG RMK QFE760/1013
Loading
Personal Weather Stations






























Interactive Weather Map New forecast layout! Learn more

10-Day Weather Forecast

Advertisements
Track Severe Weather on mobile